sensor_id;sensor_type;location;lat;lon;timestamp;P1;durP1;ratioP1;P2;durP2;ratioP2
27438;SDS011;14887;51.252;7.470;2022-09-27T00:02:24;4.57;;;3.20;;
27438;SDS011;14887;51.252;7.470;2022-09-27T00:04:49;8.33;;;3.73;;
27438;SDS011;14887;51.252;7.470;2022-09-27T00:07:15;11.07;;;3.23;;
27438;SDS011;14887;51.252;7.470;2022-09-27T00:09:40;12.03;;;4.00;;
27438;SDS011;14887;51.252;7.470;2022-09-27T00:12:06;10.00;;;2.90;;
27438;SDS011;14887;51.252;7.470;2022-09-27T00:14:32;5.87;;;3.67;;
27438;SDS011;14887;51.252;7.470;2022-09-27T00:16:58;9.70;;;3.80;;
27438;SDS011;14887;51.252;7.470;2022-09-27T00:19:24;4.53;;;2.87;;
27438;SDS011;14887;51.252;7.470;2022-09-27T00:21:49;13.50;;;3.17;;
27438;SDS011;14887;51.252;7.470;2022-09-27T00:24:16;10.43;;;3.70;;
27438;SDS011;14887;51.252;7.470;2022-09-27T00:26:45;6.67;;;4.30;;
27438;SDS011;14887;51.252;7.470;2022-09-27T00:29:11;6.17;;;3.10;;
27438;SDS011;14887;51.252;7.470;2022-09-27T00:31:37;5.77;;;3.70;;
27438;SDS011;14887;51.252;7.470;2022-09-27T00:34:03;5.70;;;3.30;;
27438;SDS011;14887;51.252;7.470;2022-09-27T00:36:30;6.73;;;3.50;;
27438;SDS011;14887;51.252;7.470;2022-09-27T00:38:57;8.23;;;3.30;;
27438;SDS011;14887;51.252;7.470;2022-09-27T00:41:31;4.40;;;3.03;;
27438;SDS011;14887;51.252;7.470;2022-09-27T00:46:30;5.97;;;2.90;;
27438;SDS011;14887;51.252;7.470;2022-09-27T00:49:19;3.80;;;2.57;;
27438;SDS011;14887;51.252;7.470;2022-09-27T00:51:52;28.63;;;3.20;;
27438;SDS011;14887;51.252;7.470;2022-09-27T00:54:21;11.60;;;3.27;;
27438;SDS011;14887;51.252;7.470;2022-09-27T00:56:49;9.00;;;2.47;;
27438;SDS011;14887;51.252;7.470;2022-09-27T00:59:18;3.43;;;2.10;;
27438;SDS011;14887;51.252;7.470;2022-09-27T01:01:48;4.40;;;1.40;;
27438;SDS011;14887;51.252;7.470;2022-09-27T01:04:16;12.07;;;2.00;;
27438;SDS011;14887;51.252;7.470;2022-09-27T01:06:46;10.47;;;2.03;;
27438;SDS011;14887;51.252;7.470;2022-09-27T01:09:12;5.07;;;2.07;;
27438;SDS011;14887;51.252;7.470;2022-09-27T01:11:42;4.93;;;2.57;;
27438;SDS011;14887;51.252;7.470;2022-09-27T01:19:57;5.23;;;3.03;;
27438;SDS011;14887;51.252;7.470;2022-09-27T01:22:57;9.33;;;3.30;;
27438;SDS011;14887;51.252;7.470;2022-09-27T01:37:08;7.20;;;4.20;;
27438;SDS011;14887;51.252;7.470;2022-09-27T01:39:46;14.63;;;5.90;;
27438;SDS011;14887;51.252;7.470;2022-09-27T01:42:21;15.80;;;5.43;;
27438;SDS011;14887;51.252;7.470;2022-09-27T01:47:30;11.17;;;5.20;;
27438;SDS011;14887;51.252;7.470;2022-09-27T01:50:20;10.90;;;5.83;;
27438;SDS011;14887;51.252;7.470;2022-09-27T01:52:48;17.37;;;5.80;;
27438;SDS011;14887;51.252;7.470;2022-09-27T01:55:54;9.63;;;5.73;;
27438;SDS011;14887;51.252;7.470;2022-09-27T01:58:23;10.17;;;6.00;;
27438;SDS011;14887;51.252;7.470;2022-09-27T02:00:53;10.80;;;6.50;;
27438;SDS011;14887;51.252;7.470;2022-09-27T02:03:36;10.80;;;6.30;;
27438;SDS011;14887;51.252;7.470;2022-09-27T02:06:13;12.20;;;5.70;;
27438;SDS011;14887;51.252;7.470;2022-09-27T02:08:44;8.17;;;4.00;;
27438;SDS011;14887;51.252;7.470;2022-09-27T02:11:21;13.27;;;5.80;;
27438;SDS011;14887;51.252;7.470;2022-09-27T02:13:52;12.30;;;5.50;;
27438;SDS011;14887;51.252;7.470;2022-09-27T02:19:03;8.63;;;4.67;;
27438;SDS011;14887;51.252;7.470;2022-09-27T02:21:55;13.60;;;5.67;;
27438;SDS011;14887;51.252;7.470;2022-09-27T02:24:45;11.27;;;5.87;;
27438;SDS011;14887;51.252;7.470;2022-09-27T02:27:34;19.20;;;7.37;;
27438;SDS011;14887;51.252;7.470;2022-09-27T02:30:06;17.93;;;7.40;;
27438;SDS011;14887;51.252;7.470;2022-09-27T02:32:36;19.83;;;8.77;;
27438;SDS011;14887;51.252;7.470;2022-09-27T02:35:07;22.13;;;8.50;;
27438;SDS011;14887;51.252;7.470;2022-09-27T02:37:34;25.60;;;7.93;;
27438;SDS011;14887;51.252;7.470;2022-09-27T02:39:59;18.73;;;7.40;;
27438;SDS011;14887;51.252;7.470;2022-09-27T02:42:25;19.63;;;8.13;;
27438;SDS011;14887;51.252;7.470;2022-09-27T02:44:52;21.13;;;8.47;;
27438;SDS011;14887;51.252;7.470;2022-09-27T02:47:22;16.90;;;7.60;;
27438;SDS011;14887;51.252;7.470;2022-09-27T02:50:06;38.13;;;8.70;;
27438;SDS011;14887;51.252;7.470;2022-09-27T03:03:26;14.07;;;8.10;;
27438;SDS011;14887;51.252;7.470;2022-09-27T03:06:04;23.73;;;9.10;;
27438;SDS011;14887;51.252;7.470;2022-09-27T03:08:32;24.67;;;9.10;;
27438;SDS011;14887;51.252;7.470;2022-09-27T03:10:58;14.70;;;7.50;;
27438;SDS011;14887;51.252;7.470;2022-09-27T03:13:24;24.93;;;9.13;;
27438;SDS011;14887;51.252;7.470;2022-09-27T03:15:49;20.63;;;8.60;;
27438;SDS011;14887;51.252;7.470;2022-09-27T03:18:15;16.70;;;8.43;;
27438;SDS011;14887;51.252;7.470;2022-09-27T03:20:41;14.60;;;7.87;;
27438;SDS011;14887;51.252;7.470;2022-09-27T03:23:06;16.53;;;9.00;;
27438;SDS011;14887;51.252;7.470;2022-09-27T03:25:32;12.97;;;7.30;;
27438;SDS011;14887;51.252;7.470;2022-09-27T03:27:57;13.63;;;7.93;;
27438;SDS011;14887;51.252;7.470;2022-09-27T03:30:23;21.67;;;8.57;;
27438;SDS011;14887;51.252;7.470;2022-09-27T03:32:48;17.73;;;8.77;;
27438;SDS011;14887;51.252;7.470;2022-09-27T03:35:14;19.10;;;7.83;;
27438;SDS011;14887;51.252;7.470;2022-09-27T03:37:40;13.70;;;7.07;;
27438;SDS011;14887;51.252;7.470;2022-09-27T03:40:05;17.73;;;8.27;;
27438;SDS011;14887;51.252;7.470;2022-09-27T03:42:32;23.83;;;8.40;;
27438;SDS011;14887;51.252;7.470;2022-09-27T03:44:58;20.53;;;8.97;;
27438;SDS011;14887;51.252;7.470;2022-09-27T03:47:23;24.37;;;8.47;;
27438;SDS011;14887;51.252;7.470;2022-09-27T03:49:49;25.57;;;9.87;;
27438;SDS011;14887;51.252;7.470;2022-09-27T03:52:14;20.20;;;9.33;;
27438;SDS011;14887;51.252;7.470;2022-09-27T03:54:42;22.77;;;8.90;;
27438;SDS011;14887;51.252;7.470;2022-09-27T03:57:08;21.63;;;8.40;;
27438;SDS011;14887;51.252;7.470;2022-09-27T03:59:35;13.83;;;7.00;;
27438;SDS011;14887;51.252;7.470;2022-09-27T04:02:00;18.07;;;8.70;;
27438;SDS011;14887;51.252;7.470;2022-09-27T04:04:26;22.37;;;8.67;;
27438;SDS011;14887;51.252;7.470;2022-09-27T04:06:51;21.03;;;9.13;;
27438;SDS011;14887;51.252;7.470;2022-09-27T04:09:17;22.90;;;9.53;;
27438;SDS011;14887;51.252;7.470;2022-09-27T04:11:42;17.67;;;8.27;;
27438;SDS011;14887;51.252;7.470;2022-09-27T04:14:08;21.07;;;9.13;;
27438;SDS011;14887;51.252;7.470;2022-09-27T04:16:36;23.07;;;8.53;;
27438;SDS011;14887;51.252;7.470;2022-09-27T04:19:04;19.40;;;8.43;;
27438;SDS011;14887;51.252;7.470;2022-09-27T04:21:29;22.20;;;8.13;;
27438;SDS011;14887;51.252;7.470;2022-09-27T04:23:55;22.23;;;9.20;;
27438;SDS011;14887;51.252;7.470;2022-09-27T04:26:20;18.00;;;7.00;;
27438;SDS011;14887;51.252;7.470;2022-09-27T04:28:47;21.20;;;9.70;;
27438;SDS011;14887;51.252;7.470;2022-09-27T04:31:15;16.70;;;8.03;;
27438;SDS011;14887;51.252;7.470;2022-09-27T04:33:40;23.83;;;8.77;;
27438;SDS011;14887;51.252;7.470;2022-09-27T04:36:06;17.93;;;8.57;;
27438;SDS011;14887;51.252;7.470;2022-09-27T04:39:03;24.67;;;8.20;;
27438;SDS011;14887;51.252;7.470;2022-09-27T04:41:30;18.27;;;8.10;;
27438;SDS011;14887;51.252;7.470;2022-09-27T04:43:56;23.47;;;9.60;;
27438;SDS011;14887;51.252;7.470;2022-09-27T04:46:24;15.33;;;8.53;;
27438;SDS011;14887;51.252;7.470;2022-09-27T04:48:49;22.20;;;9.87;;
27438;SDS011;14887;51.252;7.470;2022-09-27T04:51:15;27.03;;;10.27;;
27438;SDS011;14887;51.252;7.470;2022-09-27T04:53:42;24.30;;;10.57;;
27438;SDS011;14887;51.252;7.470;2022-09-27T04:56:08;26.80;;;11.03;;
27438;SDS011;14887;51.252;7.470;2022-09-27T04:58:34;26.90;;;10.70;;
27438;SDS011;14887;51.252;7.470;2022-09-27T05:01:00;23.47;;;11.13;;
27438;SDS011;14887;51.252;7.470;2022-09-27T05:03:28;26.57;;;10.13;;
27438;SDS011;14887;51.252;7.470;2022-09-27T05:05:54;20.60;;;9.40;;
27438;SDS011;14887;51.252;7.470;2022-09-27T05:08:19;26.40;;;11.27;;
27438;SDS011;14887;51.252;7.470;2022-09-27T05:10:45;30.27;;;7.20;;
27438;SDS011;14887;51.252;7.470;2022-09-27T05:13:11;20.10;;;8.70;;
27438;SDS011;14887;51.252;7.470;2022-09-27T05:15:38;14.40;;;6.13;;
27438;SDS011;14887;51.252;7.470;2022-09-27T05:18:05;17.17;;;6.60;;
27438;SDS011;14887;51.252;7.470;2022-09-27T05:20:32;23.10;;;5.53;;
27438;SDS011;14887;51.252;7.470;2022-09-27T05:22:58;13.70;;;5.73;;
27438;SDS011;14887;51.252;7.470;2022-09-27T05:25:24;8.27;;;5.53;;
27438;SDS011;14887;51.252;7.470;2022-09-27T05:27:50;11.20;;;5.77;;
27438;SDS011;14887;51.252;7.470;2022-09-27T05:30:16;23.67;;;6.60;;
27438;SDS011;14887;51.252;7.470;2022-09-27T05:32:42;15.83;;;6.90;;
27438;SDS011;14887;51.252;7.470;2022-09-27T05:35:09;12.40;;;5.43;;
27438;SDS011;14887;51.252;7.470;2022-09-27T05:37:35;8.63;;;5.10;;
27438;SDS011;14887;51.252;7.470;2022-09-27T05:40:00;12.13;;;6.00;;
27438;SDS011;14887;51.252;7.470;2022-09-27T05:42:26;18.27;;;6.60;;
27438;SDS011;14887;51.252;7.470;2022-09-27T05:44:52;11.60;;;6.17;;
27438;SDS011;14887;51.252;7.470;2022-09-27T05:47:17;12.20;;;6.03;;
27438;SDS011;14887;51.252;7.470;2022-09-27T05:49:43;17.27;;;7.30;;
27438;SDS011;14887;51.252;7.470;2022-09-27T05:52:08;12.50;;;6.20;;
27438;SDS011;14887;51.252;7.470;2022-09-27T05:54:34;20.80;;;6.80;;
27438;SDS011;14887;51.252;7.470;2022-09-27T05:56:59;9.63;;;5.50;;
27438;SDS011;14887;51.252;7.470;2022-09-27T05:59:25;17.73;;;6.23;;
27438;SDS011;14887;51.252;7.470;2022-09-27T06:01:52;21.57;;;7.03;;
27438;SDS011;14887;51.252;7.470;2022-09-27T06:04:18;22.70;;;6.27;;
27438;SDS011;14887;51.252;7.470;2022-09-27T06:06:44;15.60;;;5.57;;
27438;SDS011;14887;51.252;7.470;2022-09-27T06:09:11;11.87;;;6.40;;
27438;SDS011;14887;51.252;7.470;2022-09-27T06:11:39;13.20;;;6.33;;
27438;SDS011;14887;51.252;7.470;2022-09-27T06:14:06;8.70;;;5.37;;
27438;SDS011;14887;51.252;7.470;2022-09-27T06:16:32;16.03;;;6.70;;
27438;SDS011;14887;51.252;7.470;2022-09-27T06:18:57;16.20;;;7.07;;
27438;SDS011;14887;51.252;7.470;2022-09-27T06:21:23;11.23;;;6.33;;
27438;SDS011;14887;51.252;7.470;2022-09-27T06:23:50;14.23;;;5.60;;
27438;SDS011;14887;51.252;7.470;2022-09-27T06:26:15;10.13;;;6.33;;
27438;SDS011;14887;51.252;7.470;2022-09-27T06:28:41;14.00;;;6.50;;
27438;SDS011;14887;51.252;7.470;2022-09-27T06:31:07;16.93;;;6.50;;
27438;SDS011;14887;51.252;7.470;2022-09-27T06:33:32;11.53;;;6.70;;
27438;SDS011;14887;51.252;7.470;2022-09-27T06:36:02;6.60;;;4.60;;
27438;SDS011;14887;51.252;7.470;2022-09-27T06:38:29;6.53;;;5.00;;
27438;SDS011;14887;51.252;7.470;2022-09-27T06:40:54;9.30;;;4.77;;
27438;SDS011;14887;51.252;7.470;2022-09-27T06:43:22;16.20;;;5.93;;
27438;SDS011;14887;51.252;7.470;2022-09-27T06:45:48;7.47;;;4.33;;
27438;SDS011;14887;51.252;7.470;2022-09-27T06:48:14;7.10;;;5.10;;
27438;SDS011;14887;51.252;7.470;2022-09-27T06:50:41;13.23;;;5.43;;
27438;SDS011;14887;51.252;7.470;2022-09-27T06:53:08;12.53;;;4.23;;
27438;SDS011;14887;51.252;7.470;2022-09-27T06:55:36;5.80;;;3.93;;
27438;SDS011;14887;51.252;7.470;2022-09-27T06:58:02;6.67;;;3.90;;
27438;SDS011;14887;51.252;7.470;2022-09-27T07:00:48;6.03;;;3.80;;
27438;SDS011;14887;51.252;7.470;2022-09-27T07:03:14;7.40;;;3.80;;
27438;SDS011;14887;51.252;7.470;2022-09-27T07:05:40;8.93;;;4.30;;
27438;SDS011;14887;51.252;7.470;2022-09-27T07:08:06;8.87;;;3.70;;
27438;SDS011;14887;51.252;7.470;2022-09-27T07:10:36;12.70;;;4.30;;
27438;SDS011;14887;51.252;7.470;2022-09-27T07:13:03;5.00;;;3.80;;
27438;SDS011;14887;51.252;7.470;2022-09-27T07:15:29;5.43;;;3.53;;
27438;SDS011;14887;51.252;7.470;2022-09-27T07:17:56;6.83;;;3.13;;
27438;SDS011;14887;51.252;7.470;2022-09-27T07:20:23;5.77;;;3.00;;
27438;SDS011;14887;51.252;7.470;2022-09-27T07:22:49;6.40;;;2.80;;
27438;SDS011;14887;51.252;7.470;2022-09-27T07:25:15;6.60;;;2.70;;
27438;SDS011;14887;51.252;7.470;2022-09-27T07:27:40;4.23;;;2.37;;
27438;SDS011;14887;51.252;7.470;2022-09-27T07:30:07;6.27;;;3.00;;
27438;SDS011;14887;51.252;7.470;2022-09-27T07:32:34;12.03;;;3.53;;
27438;SDS011;14887;51.252;7.470;2022-09-27T07:35:04;5.37;;;2.63;;
27438;SDS011;14887;51.252;7.470;2022-09-27T07:37:31;5.30;;;3.00;;
27438;SDS011;14887;51.252;7.470;2022-09-27T07:39:58;3.93;;;2.70;;
27438;SDS011;14887;51.252;7.470;2022-09-27T07:42:24;5.47;;;2.33;;
27438;SDS011;14887;51.252;7.470;2022-09-27T07:44:50;4.70;;;2.93;;
27438;SDS011;14887;51.252;7.470;2022-09-27T07:47:15;5.20;;;2.77;;
27438;SDS011;14887;51.252;7.470;2022-09-27T07:49:43;3.40;;;2.30;;
27438;SDS011;14887;51.252;7.470;2022-09-27T07:52:08;4.87;;;2.47;;
27438;SDS011;14887;51.252;7.470;2022-09-27T07:54:34;5.23;;;2.17;;
27438;SDS011;14887;51.252;7.470;2022-09-27T07:57:00;6.73;;;2.27;;
27438;SDS011;14887;51.252;7.470;2022-09-27T07:59:27;2.80;;;2.47;;
27438;SDS011;14887;51.252;7.470;2022-09-27T08:01:53;8.27;;;2.30;;
27438;SDS011;14887;51.252;7.470;2022-09-27T08:04:19;5.80;;;2.50;;
27438;SDS011;14887;51.252;7.470;2022-09-27T08:06:45;4.70;;;2.70;;
27438;SDS011;14887;51.252;7.470;2022-09-27T08:09:11;3.70;;;2.80;;
27438;SDS011;14887;51.252;7.470;2022-09-27T08:11:36;5.93;;;2.27;;
27438;SDS011;14887;51.252;7.470;2022-09-27T08:14:02;2.90;;;2.23;;
27438;SDS011;14887;51.252;7.470;2022-09-27T08:16:29;4.60;;;2.80;;
27438;SDS011;14887;51.252;7.470;2022-09-27T08:18:57;2.33;;;1.77;;
27438;SDS011;14887;51.252;7.470;2022-09-27T08:21:22;2.13;;;1.60;;
27438;SDS011;14887;51.252;7.470;2022-09-27T08:23:48;5.27;;;2.33;;
27438;SDS011;14887;51.252;7.470;2022-09-27T08:26:13;3.43;;;2.40;;
27438;SDS011;14887;51.252;7.470;2022-09-27T08:28:39;2.90;;;2.20;;
27438;SDS011;14887;51.252;7.470;2022-09-27T08:31:05;2.03;;;1.83;;
27438;SDS011;14887;51.252;7.470;2022-09-27T08:33:30;3.13;;;2.00;;
27438;SDS011;14887;51.252;7.470;2022-09-27T08:35:56;6.30;;;2.70;;
27438;SDS011;14887;51.252;7.470;2022-09-27T08:38:21;5.27;;;2.50;;
27438;SDS011;14887;51.252;7.470;2022-09-27T08:46:26;2.90;;;1.53;;
27438;SDS011;14887;51.252;7.470;2022-09-27T08:49:09;3.10;;;1.87;;
27438;SDS011;14887;51.252;7.470;2022-09-27T08:51:47;4.17;;;1.77;;
27438;SDS011;14887;51.252;7.470;2022-09-27T08:54:17;2.70;;;1.90;;
27438;SDS011;14887;51.252;7.470;2022-09-27T08:56:47;1.70;;;1.60;;
27438;SDS011;14887;51.252;7.470;2022-09-27T08:59:14;6.03;;;1.90;;
27438;SDS011;14887;51.252;7.470;2022-09-27T09:01:45;4.07;;;2.07;;
27438;SDS011;14887;51.252;7.470;2022-09-27T09:04:13;2.67;;;1.67;;
27438;SDS011;14887;51.252;7.470;2022-09-27T09:06:47;2.40;;;2.20;;
27438;SDS011;14887;51.252;7.470;2022-09-27T09:35:24;2.53;;;1.93;;
27438;SDS011;14887;51.252;7.470;2022-09-27T09:38:04;4.77;;;2.80;;
27438;SDS011;14887;51.252;7.470;2022-09-27T09:40:41;4.43;;;3.03;;
27438;SDS011;14887;51.252;7.470;2022-09-27T09:43:42;3.33;;;2.60;;
27438;SDS011;14887;51.252;7.470;2022-09-27T09:46:14;4.80;;;3.10;;
27438;SDS011;14887;51.252;7.470;2022-09-27T09:48:45;4.10;;;2.70;;
27438;SDS011;14887;51.252;7.470;2022-09-27T09:51:32;5.70;;;2.77;;
27438;SDS011;14887;51.252;7.470;2022-09-27T09:54:05;2.57;;;2.07;;
27438;SDS011;14887;51.252;7.470;2022-09-27T09:59:44;12.50;;;6.57;;
27438;SDS011;14887;51.252;7.470;2022-09-27T10:02:17;4.00;;;2.47;;
27438;SDS011;14887;51.252;7.470;2022-09-27T10:05:00;16.30;;;6.50;;
27438;SDS011;14887;51.252;7.470;2022-09-27T10:07:26;8.73;;;4.57;;
27438;SDS011;14887;51.252;7.470;2022-09-27T10:09:54;9.13;;;4.53;;
27438;SDS011;14887;51.252;7.470;2022-09-27T10:12:24;4.33;;;3.00;;
27438;SDS011;14887;51.252;7.470;2022-09-27T10:14:50;5.53;;;2.30;;
27438;SDS011;14887;51.252;7.470;2022-09-27T10:17:22;2.53;;;2.30;;
27438;SDS011;14887;51.252;7.470;2022-09-27T10:19:51;3.70;;;2.27;;
27438;SDS011;14887;51.252;7.470;2022-09-27T10:22:28;3.80;;;2.70;;
27438;SDS011;14887;51.252;7.470;2022-09-27T10:25:01;4.03;;;2.47;;
27438;SDS011;14887;51.252;7.470;2022-09-27T10:27:40;9.07;;;2.87;;
27438;SDS011;14887;51.252;7.470;2022-09-27T10:33:13;2.50;;;1.80;;
27438;SDS011;14887;51.252;7.470;2022-09-27T10:35:43;5.53;;;2.00;;
27438;SDS011;14887;51.252;7.470;2022-09-27T10:40:42;2.33;;;2.03;;
27438;SDS011;14887;51.252;7.470;2022-09-27T10:46:02;6.60;;;2.70;;
27438;SDS011;14887;51.252;7.470;2022-09-27T10:48:46;3.97;;;2.20;;
27438;SDS011;14887;51.252;7.470;2022-09-27T10:51:21;2.33;;;1.97;;
27438;SDS011;14887;51.252;7.470;2022-09-27T10:53:53;2.43;;;2.00;;
27438;SDS011;14887;51.252;7.470;2022-09-27T10:56:33;3.30;;;2.03;;
27438;SDS011;14887;51.252;7.470;2022-09-27T10:58:59;2.70;;;2.23;;
27438;SDS011;14887;51.252;7.470;2022-09-27T11:01:37;2.37;;;1.97;;
27438;SDS011;14887;51.252;7.470;2022-09-27T11:04:06;3.40;;;2.63;;
27438;SDS011;14887;51.252;7.470;2022-09-27T11:09:53;5.63;;;2.40;;
27438;SDS011;14887;51.252;7.470;2022-09-27T11:12:26;3.03;;;2.53;;
27438;SDS011;14887;51.252;7.470;2022-09-27T11:15:00;3.70;;;2.90;;
27438;SDS011;14887;51.252;7.470;2022-09-27T11:17:34;2.73;;;2.53;;
27438;SDS011;14887;51.252;7.470;2022-09-27T11:34:10;1.70;;;1.60;;
27438;SDS011;14887;51.252;7.470;2022-09-27T11:37:08;1.93;;;1.43;;
27438;SDS011;14887;51.252;7.470;2022-09-27T11:56:47;2.43;;;2.00;;
27438;SDS011;14887;51.252;7.470;2022-09-27T12:07:50;3.00;;;2.43;;
27438;SDS011;14887;51.252;7.470;2022-09-27T12:10:21;3.00;;;2.10;;
27438;SDS011;14887;51.252;7.470;2022-09-27T12:12:51;4.90;;;2.43;;
27438;SDS011;14887;51.252;7.470;2022-09-27T12:15:20;5.87;;;2.97;;
27438;SDS011;14887;51.252;7.470;2022-09-27T12:17:51;9.27;;;2.37;;
27438;SDS011;14887;51.252;7.470;2022-09-27T12:20:27;4.07;;;2.67;;
27438;SDS011;14887;51.252;7.470;2022-09-27T12:23:02;5.60;;;2.70;;
27438;SDS011;14887;51.252;7.470;2022-09-27T12:25:39;3.53;;;2.30;;
27438;SDS011;14887;51.252;7.470;2022-09-27T12:28:21;3.90;;;2.73;;
27438;SDS011;14887;51.252;7.470;2022-09-27T12:30:51;5.37;;;3.00;;
27438;SDS011;14887;51.252;7.470;2022-09-27T12:33:28;4.20;;;2.30;;
27438;SDS011;14887;51.252;7.470;2022-09-27T12:36:03;2.73;;;1.70;;
27438;SDS011;14887;51.252;7.470;2022-09-27T12:41:08;3.47;;;1.77;;
27438;SDS011;14887;51.252;7.470;2022-09-27T12:43:38;7.40;;;2.50;;
27438;SDS011;14887;51.252;7.470;2022-09-27T12:49:07;2.70;;;1.80;;
27438;SDS011;14887;51.252;7.470;2022-09-27T12:52:02;2.03;;;1.83;;
27438;SDS011;14887;51.252;7.470;2022-09-27T13:11:07;2.03;;;1.43;;
27438;SDS011;14887;51.252;7.470;2022-09-27T13:13:43;1.70;;;1.50;;
27438;SDS011;14887;51.252;7.470;2022-09-27T13:16:08;3.10;;;2.33;;
27438;SDS011;14887;51.252;7.470;2022-09-27T13:21:01;3.97;;;1.97;;
27438;SDS011;14887;51.252;7.470;2022-09-27T13:25:56;3.13;;;2.37;;
27438;SDS011;14887;51.252;7.470;2022-09-27T13:31:05;5.53;;;2.80;;
27438;SDS011;14887;51.252;7.470;2022-09-27T13:33:39;3.40;;;2.17;;
27438;SDS011;14887;51.252;7.470;2022-09-27T13:47:39;8.20;;;2.87;;
27438;SDS011;14887;51.252;7.470;2022-09-27T13:50:24;2.60;;;2.10;;
27438;SDS011;14887;51.252;7.470;2022-09-27T13:53:01;2.80;;;2.40;;
27438;SDS011;14887;51.252;7.470;2022-09-27T13:55:51;5.47;;;2.20;;
27438;SDS011;14887;51.252;7.470;2022-09-27T14:00:54;2.13;;;1.90;;
27438;SDS011;14887;51.252;7.470;2022-09-27T14:03:30;4.93;;;2.30;;
27438;SDS011;14887;51.252;7.470;2022-09-27T14:06:06;3.97;;;2.53;;
27438;SDS011;14887;51.252;7.470;2022-09-27T14:08:39;2.33;;;2.10;;
27438;SDS011;14887;51.252;7.470;2022-09-27T14:11:14;2.90;;;2.03;;
27438;SDS011;14887;51.252;7.470;2022-09-27T14:13:46;2.30;;;2.10;;
27438;SDS011;14887;51.252;7.470;2022-09-27T14:16:14;3.30;;;1.57;;
27438;SDS011;14887;51.252;7.470;2022-09-27T14:18:42;2.50;;;1.83;;
27438;SDS011;14887;51.252;7.470;2022-09-27T14:21:33;1.93;;;1.43;;
27438;SDS011;14887;51.252;7.470;2022-09-27T14:26:47;2.10;;;1.80;;
27438;SDS011;14887;51.252;7.470;2022-09-27T14:29:18;1.77;;;1.67;;
27438;SDS011;14887;51.252;7.470;2022-09-27T14:31:45;7.43;;;1.53;;
27438;SDS011;14887;51.252;7.470;2022-09-27T14:34:14;2.80;;;1.70;;
27438;SDS011;14887;51.252;7.470;2022-09-27T14:36:40;2.70;;;1.87;;
27438;SDS011;14887;51.252;7.470;2022-09-27T14:39:28;2.10;;;1.60;;
27438;SDS011;14887;51.252;7.470;2022-09-27T14:42:01;2.07;;;1.40;;
27438;SDS011;14887;51.252;7.470;2022-09-27T14:44:30;2.40;;;1.47;;
27438;SDS011;14887;51.252;7.470;2022-09-27T14:49:57;1.93;;;1.73;;
27438;SDS011;14887;51.252;7.470;2022-09-27T14:52:25;3.00;;;1.87;;
27438;SDS011;14887;51.252;7.470;2022-09-27T14:55:07;1.50;;;1.40;;
27438;SDS011;14887;51.252;7.470;2022-09-27T14:57:44;2.73;;;2.07;;
27438;SDS011;14887;51.252;7.470;2022-09-27T15:00:17;8.20;;;3.60;;
27438;SDS011;14887;51.252;7.470;2022-09-27T15:02:45;7.33;;;3.00;;
27438;SDS011;14887;51.252;7.470;2022-09-27T15:05:15;4.20;;;2.07;;
27438;SDS011;14887;51.252;7.470;2022-09-27T15:07:43;3.43;;;2.60;;
27438;SDS011;14887;51.252;7.470;2022-09-27T15:10:14;5.93;;;2.50;;
27438;SDS011;14887;51.252;7.470;2022-09-27T15:12:42;6.30;;;3.80;;
27438;SDS011;14887;51.252;7.470;2022-09-27T15:15:12;8.40;;;4.57;;
27438;SDS011;14887;51.252;7.470;2022-09-27T15:17:41;3.83;;;2.00;;
27438;SDS011;14887;51.252;7.470;2022-09-27T15:20:18;2.80;;;1.67;;
27438;SDS011;14887;51.252;7.470;2022-09-27T15:22:44;3.87;;;1.80;;
27438;SDS011;14887;51.252;7.470;2022-09-27T15:25:21;9.07;;;4.90;;
27438;SDS011;14887;51.252;7.470;2022-09-27T15:27:56;3.27;;;2.30;;
27438;SDS011;14887;51.252;7.470;2022-09-27T15:30:41;6.53;;;3.00;;
27438;SDS011;14887;51.252;7.470;2022-09-27T15:33:18;4.47;;;3.27;;
27438;SDS011;14887;51.252;7.470;2022-09-27T15:35:50;3.30;;;2.50;;
27438;SDS011;14887;51.252;7.470;2022-09-27T15:41:00;5.97;;;2.63;;
27438;SDS011;14887;51.252;7.470;2022-09-27T15:46:27;3.80;;;2.60;;
27438;SDS011;14887;51.252;7.470;2022-09-27T15:51:44;2.33;;;1.77;;
27438;SDS011;14887;51.252;7.470;2022-09-27T15:54:18;2.90;;;2.43;;
27438;SDS011;14887;51.252;7.470;2022-09-27T15:56:48;8.93;;;2.50;;
27438;SDS011;14887;51.252;7.470;2022-09-27T15:59:22;6.27;;;2.83;;
27438;SDS011;14887;51.252;7.470;2022-09-27T16:01:51;6.47;;;3.60;;
27438;SDS011;14887;51.252;7.470;2022-09-27T16:04:23;7.90;;;4.20;;
27438;SDS011;14887;51.252;7.470;2022-09-27T16:06:50;5.57;;;2.27;;
27438;SDS011;14887;51.252;7.470;2022-09-27T16:09:17;7.83;;;3.70;;
27438;SDS011;14887;51.252;7.470;2022-09-27T16:11:44;10.00;;;4.23;;
27438;SDS011;14887;51.252;7.470;2022-09-27T16:14:11;7.63;;;3.87;;
27438;SDS011;14887;51.252;7.470;2022-09-27T16:16:40;5.03;;;2.83;;
27438;SDS011;14887;51.252;7.470;2022-09-27T16:19:10;5.30;;;2.87;;
27438;SDS011;14887;51.252;7.470;2022-09-27T16:21:37;10.00;;;5.10;;
27438;SDS011;14887;51.252;7.470;2022-09-27T16:24:03;7.23;;;3.17;;
27438;SDS011;14887;51.252;7.470;2022-09-27T16:26:29;8.07;;;3.30;;
27438;SDS011;14887;51.252;7.470;2022-09-27T16:28:54;8.33;;;3.10;;
27438;SDS011;14887;51.252;7.470;2022-09-27T16:31:20;7.83;;;4.17;;
27438;SDS011;14887;51.252;7.470;2022-09-27T16:33:49;7.10;;;3.93;;
27438;SDS011;14887;51.252;7.470;2022-09-27T16:36:15;8.70;;;4.10;;
27438;SDS011;14887;51.252;7.470;2022-09-27T16:38:47;20.00;;;3.60;;
27438;SDS011;14887;51.252;7.470;2022-09-27T16:41:16;5.13;;;3.57;;
27438;SDS011;14887;51.252;7.470;2022-09-27T16:43:42;5.87;;;3.70;;
27438;SDS011;14887;51.252;7.470;2022-09-27T16:46:09;5.23;;;3.70;;
27438;SDS011;14887;51.252;7.470;2022-09-27T16:48:37;4.17;;;3.10;;
27438;SDS011;14887;51.252;7.470;2022-09-27T16:51:05;5.13;;;3.60;;
27438;SDS011;14887;51.252;7.470;2022-09-27T16:53:53;6.77;;;3.40;;
27438;SDS011;14887;51.252;7.470;2022-09-27T16:56:19;6.40;;;3.67;;
27438;SDS011;14887;51.252;7.470;2022-09-27T16:58:45;7.27;;;3.20;;
27438;SDS011;14887;51.252;7.470;2022-09-27T17:01:11;4.57;;;3.00;;
27438;SDS011;14887;51.252;7.470;2022-09-27T17:03:37;14.63;;;3.83;;
27438;SDS011;14887;51.252;7.470;2022-09-27T17:06:02;5.33;;;3.30;;
27438;SDS011;14887;51.252;7.470;2022-09-27T17:08:28;9.70;;;3.10;;
27438;SDS011;14887;51.252;7.470;2022-09-27T17:10:54;16.83;;;3.43;;
27438;SDS011;14887;51.252;7.470;2022-09-27T17:13:21;4.60;;;3.60;;
27438;SDS011;14887;51.252;7.470;2022-09-27T17:15:49;5.60;;;3.10;;
27438;SDS011;14887;51.252;7.470;2022-09-27T17:18:15;3.73;;;2.80;;
27438;SDS011;14887;51.252;7.470;2022-09-27T17:20:41;2.50;;;2.20;;
27438;SDS011;14887;51.252;7.470;2022-09-27T17:23:06;3.50;;;2.00;;
27438;SDS011;14887;51.252;7.470;2022-09-27T17:25:32;5.23;;;2.17;;
27438;SDS011;14887;51.252;7.470;2022-09-27T17:27:58;4.67;;;2.40;;
27438;SDS011;14887;51.252;7.470;2022-09-27T17:30:24;5.97;;;1.53;;
27438;SDS011;14887;51.252;7.470;2022-09-27T17:32:50;3.00;;;1.63;;
27438;SDS011;14887;51.252;7.470;2022-09-27T17:35:15;3.20;;;1.90;;
27438;SDS011;14887;51.252;7.470;2022-09-27T17:37:41;4.20;;;2.20;;
27438;SDS011;14887;51.252;7.470;2022-09-27T17:40:06;2.90;;;2.57;;
27438;SDS011;14887;51.252;7.470;2022-09-27T17:42:32;10.00;;;3.43;;
27438;SDS011;14887;51.252;7.470;2022-09-27T17:44:59;5.40;;;3.73;;
27438;SDS011;14887;51.252;7.470;2022-09-27T17:47:25;6.33;;;4.23;;
27438;SDS011;14887;51.252;7.470;2022-09-27T17:50:10;5.63;;;3.20;;
27438;SDS011;14887;51.252;7.470;2022-09-27T17:53:01;9.33;;;4.50;;
27438;SDS011;14887;51.252;7.470;2022-09-27T17:55:28;6.63;;;3.40;;
27438;SDS011;14887;51.252;7.470;2022-09-27T17:57:54;12.33;;;3.40;;
27438;SDS011;14887;51.252;7.470;2022-09-27T18:00:19;5.40;;;2.57;;